Time;durP1;ratioP1;P1;durP2;ratioP2;P2;SDS_P1;SDS_P2;PMS_P1;PMS_P2;Temp;Humidity;BMP_temperature;BMP_pressure;BME280_temperature;BME280_humidity;BME280_pressure;Samples;Min_cycle;Max_cycle;Signal;HPM_P1;HPM_P2
2022/08/10 00:01:02;;;;;;;4.30;2.10;;;;;;;20.68;85.62;102682.28;5110609;27;20666;-59
2022/08/10 00:03:29;;;;;;;3.05;2.10;;;;;;;20.63;86.16;102692.63;5115209;27;20051;-59
2022/08/10 00:05:55;;;;;;;3.58;1.88;;;;;;;20.58;86.25;102687.78;5116157;27;20054;-58
2022/08/10 00:08:25;;;;;;;4.07;2.42;;;;;;;20.54;87.20;102692.59;5121211;27;20047;-59
2022/08/10 00:10:53;;;;;;;2.97;2.00;;;;;;;20.49;87.40;102688.75;5112822;27;20047;-59
2022/08/10 00:13:21;;;;;;;4.32;2.15;;;;;;;20.43;87.64;102687.59;5121044;27;20193;-58
2022/08/10 00:15:47;;;;;;;3.40;2.10;;;;;;;20.36;87.99;102686.59;5100044;27;20151;-59
2022/08/10 00:18:20;;;;;;;3.05;1.92;;;;;;;20.39;88.21;102686.25;5107956;28;20135;-59
2022/08/10 00:21:03;;;;;;;3.25;1.90;;;;;;;20.33;88.92;102690.41;5100426;27;20548;-59
2022/08/10 00:23:29;;;;;;;;;;;;;;;20.31;89.33;102689.75;5117661;27;20577;-60
2022/08/10 00:25:55;;;;;;;2.10;1.90;;;;;;;20.25;89.60;102692.25;5115725;27;19987;-59
2022/08/10 00:28:22;;;;;;;5.13;1.88;;;;;;;20.14;90.49;102691.56;5118595;27;20047;-59
2022/08/10 00:30:48;;;;;;;2.38;1.80;;;;;;;20.06;91.46;102688.88;5125525;27;20044;-60
2022/08/10 00:33:15;;;;;;;4.68;2.00;;;;;;;20.07;89.67;102687.06;5108575;27;20051;-59
2022/08/10 00:35:41;;;;;;;2.72;1.67;;;;;;;20.06;89.30;102685.41;5114277;27;20058;-59
2022/08/10 00:38:08;;;;;;;1.90;1.60;;;;;;;20.03;90.61;102688.38;5104925;27;20054;-59
2022/08/10 00:40:34;;;;;;;3.35;1.50;;;;;;;20.02;90.81;102689.38;5105993;27;20055;-59
2022/08/10 00:43:04;;;;;;;2.92;1.80;;;;;;;20.05;88.53;102689.03;5118868;27;20112;-57
2022/08/10 00:45:31;;;;;;;2.58;1.85;;;;;;;20.07;88.31;102693.25;5113403;27;20531;-59
2022/08/10 00:47:57;;;;;;;4.65;1.85;;;;;;;20.08;88.47;102688.72;5119577;27;20487;-59
2022/08/10 00:50:24;;;;;;;3.95;1.80;;;;;;;20.04;90.47;102687.41;5102402;27;20051;-59
2022/08/10 00:52:51;;;;;;;2.95;1.70;;;;;;;20.01;91.00;102687.72;5113172;27;20054;-59
2022/08/10 00:55:18;;;;;;;3.35;1.90;;;;;;;19.94;92.19;102680.38;5114232;27;20128;-59
2022/08/10 00:57:45;;;;;;;2.15;1.45;;;;;;;19.94;90.58;102687.53;5103496;27;20079;-60
2022/08/10 01:00:21;;;;;;;3.67;1.60;;;;;;;19.91;92.13;102688.69;5110521;27;20047;-58
2022/08/10 01:02:47;;;;;;;2.15;1.70;;;;;;;19.86;93.15;102682.19;5111979;27;20145;-59
2022/08/10 01:05:14;;;;;;;2.25;1.58;;;;;;;19.83;93.24;102685.19;5102481;28;20090;-59
2022/08/10 01:07:55;;;;;;;2.30;1.70;;;;;;;19.83;94.83;102688.66;5110102;27;20134;-60
2022/08/10 01:10:37;;;;;;;2.28;1.80;;;;;;;19.81;93.34;102681.84;5115552;27;20053;-61
2022/08/10 01:13:19;;;;;;;2.58;1.90;;;;;;;19.78;96.08;102682.16;5104763;27;20053;-60
2022/08/10 01:15:59;;;;;;;3.80;1.67;;;;;;;19.77;92.35;102677.84;5119642;27;20055;-60
2022/08/10 01:18:39;;;;;;;3.25;1.70;;;;;;;19.74;95.34;102682.50;5113065;27;20464;-59
2022/08/10 01:21:17;;;;;;;5.57;2.08;;;;;;;19.71;96.46;102674.81;5106985;27;20055;-59
2022/08/10 01:24:02;;;;;;;4.72;1.50;;;;;;;19.67;97.30;102673.44;5112890;27;20050;-60
2022/08/10 01:27:07;;;;;;;4.30;1.67;;;;;;;19.61;96.08;102671.44;5116801;27;20054;-60
2022/08/10 01:30:00;;;;;;;1.77;1.60;;;;;;;19.64;97.51;102671.13;5120313;27;20050;-57
2022/08/10 01:32:47;;;;;;;3.70;1.65;;;;;;;19.65;97.24;102677.28;5097029;27;20043;-60
2022/08/10 01:35:38;;;;;;;4.90;1.83;;;;;;;19.64;96.91;102672.94;5102587;28;20053;-60
2022/08/10 01:38:13;;;;;;;2.80;1.70;;;;;;;19.65;97.27;102675.44;5108331;27;20043;-59
2022/08/10 01:40:56;;;;;;;3.03;1.50;;;;;;;19.67;97.73;102664.63;5109008;27;20496;-60
2022/08/10 01:43:25;;;;;;;2.97;1.80;;;;;;;19.62;97.73;102664.28;5118431;27;20491;-60
2022/08/10 01:45:55;;;;;;;2.85;1.52;;;;;;;19.62;97.50;102665.13;5114918;27;20040;-60
2022/08/10 01:48:30;;;;;;;3.40;1.65;;;;;;;19.60;99.12;102659.13;5103779;27;20050;-60
2022/08/10 01:51:07;;;;;;;5.28;1.67;;;;;;;19.60;97.30;102666.25;5097982;27;20057;-59
2022/08/10 01:53:41;;;;;;;4.65;1.95;;;;;;;19.58;98.94;102663.75;5108410;27;20059;-61
2022/08/10 01:56:11;;;;;;;2.00;1.25;;;;;;;19.51;99.03;102655.59;5113812;27;20050;-59
2022/08/10 01:58:38;;;;;;;3.97;2.05;;;;;;;19.51;100.00;102657.44;5101492;28;20066;-60
2022/08/10 02:01:08;;;;;;;2.73;2.00;;;;;;;19.40;100.00;102657.72;5102338;28;20050;-60
2022/08/10 02:03:38;;;;;;;3.20;1.92;;;;;;;19.41;100.00;102662.88;5102084;28;20092;-60
2022/08/10 02:06:29;;;;;;;3.88;2.10;;;;;;;19.40;100.00;102663.88;5108902;27;20454;-60
2022/08/10 02:08:58;;;;;;;3.38;2.20;;;;;;;19.38;100.00;102663.19;5118517;27;20074;-61
2022/08/10 02:11:33;;;;;;;3.30;1.98;;;;;;;19.40;100.00;102663.88;5105929;27;20101;-60
2022/08/10 02:14:20;;;;;;;;;;;;;;;19.39;100.00;102658.72;5106961;27;20595;-59
2022/08/10 02:16:50;;;;;;;3.97;2.20;;;;;;;19.36;100.00;102652.69;5108773;27;19931;-60
2022/08/10 02:19:22;;;;;;;6.82;2.42;;;;;;;19.29;100.00;102662.34;5107153;28;20048;-60
2022/08/10 02:21:51;;;;;;;4.22;1.83;;;;;;;19.28;100.00;102658.00;5100545;27;20411;-59
2022/08/10 02:24:42;;;;;;;3.55;2.10;;;;;;;19.23;100.00;102655.00;5106415;27;20047;-59
2022/08/10 02:27:11;;;;;;;4.90;2.58;;;;;;;19.20;100.00;102657.13;5110558;27;20487;-59
2022/08/10 02:29:40;;;;;;;3.22;2.15;;;;;;;19.13;100.00;102647.13;5111541;27;20047;-60
2022/08/10 02:32:10;;;;;;;4.65;2.35;;;;;;;19.15;100.00;102653.13;5119253;27;20403;-60
2022/08/10 02:34:38;;;;;;;4.05;2.60;;;;;;;19.13;100.00;102667.56;5100021;27;20661;-60
2022/08/10 02:37:07;;;;;;;2.47;2.10;;;;;;;19.09;100.00;102666.22;5110638;27;20047;-59
2022/08/10 02:39:37;;;;;;;3.13;2.10;;;;;;;19.06;100.00;102666.53;5102160;28;20047;-60
2022/08/10 02:42:21;;;;;;;4.50;2.60;;;;;;;19.07;100.00;102658.41;5101954;28;20055;-60
2022/08/10 02:45:22;;;;;;;4.18;2.25;;;;;;;19.03;100.00;102665.00;5096266;28;20067;-59
2022/08/10 02:48:17;;;;;;;5.63;2.50;;;;;;;19.00;100.00;102661.84;5106781;28;20096;-60
2022/08/10 02:50:49;;;;;;;6.30;2.33;;;;;;;18.92;100.00;102666.13;5111364;28;20043;-60
2022/08/10 02:53:39;;;;;;;3.97;2.83;;;;;;;18.88;100.00;102655.97;5119313;27;20736;-60
2022/08/10 02:56:28;;;;;;;3.20;2.28;;;;;;;18.82;100.00;102654.78;5101062;27;20053;-60
2022/08/10 02:59:10;;;;;;;2.88;2.28;;;;;;;18.78;100.00;102659.53;5112455;27;20052;-60
2022/08/10 03:01:42;;;;;;;5.53;2.60;;;;;;;18.77;100.00;102665.81;5117278;27;20043;-59
2022/08/10 03:04:18;;;;;;;3.97;2.95;;;;;;;18.76;100.00;102655.38;5116925;27;20047;-60
2022/08/10 03:07:09;;;;;;;4.15;2.90;;;;;;;18.75;100.00;102654.50;5107001;27;20056;-60
2022/08/10 03:09:38;;;;;;;5.25;3.03;;;;;;;18.74;100.00;102657.34;5111905;27;20054;-60
2022/08/10 03:12:07;;;;;;;5.75;2.60;;;;;;;18.70;100.00;102656.81;5122564;27;20066;-60
2022/08/10 03:14:55;;;;;;;3.72;2.67;;;;;;;18.66;100.00;102652.81;5108540;27;20077;-60
2022/08/10 03:17:23;;;;;;;4.72;2.90;;;;;;;18.63;100.00;102654.94;5123547;27;20069;-64
2022/08/10 03:19:51;;;;;;;4.97;2.95;;;;;;;18.61;100.00;102654.25;5115906;27;20052;-60
2022/08/10 03:22:39;;;;;;;4.07;3.00;;;;;;;18.55;100.00;102656.53;5120906;27;20066;-60
2022/08/10 03:25:08;;;;;;;7.18;3.03;;;;;;;18.48;100.00;102651.97;5114469;27;20150;-60
2022/08/10 03:27:35;;;;;;;6.55;3.70;;;;;;;18.46;100.00;102651.31;5114395;27;20055;-60
2022/08/10 03:30:04;;;;;;;5.20;2.85;;;;;;;18.45;100.00;102654.97;5123870;27;20055;-60
2022/08/10 03:32:52;;;;;;;6.60;3.40;;;;;;;18.44;100.00;102647.97;5115485;27;20054;-60
2022/08/10 03:35:20;;;;;;;5.05;3.20;;;;;;;18.37;100.00;102647.75;5119826;27;20043;-59
2022/08/10 03:37:46;;;;;;;6.97;3.28;;;;;;;18.36;100.00;102649.56;5105989;27;20074;-61
2022/08/10 03:40:13;;;;;;;4.78;3.33;;;;;;;18.32;100.00;102640.22;5113811;27;20047;-60
2022/08/10 03:42:42;;;;;;;5.43;3.40;;;;;;;18.27;100.00;102633.72;5107888;27;20094;-60
2022/08/10 03:45:09;;;;;;;6.60;3.90;;;;;;;18.22;100.00;102638.66;5128405;27;20054;-60
2022/08/10 03:47:38;;;;;;;5.55;3.60;;;;;;;18.15;100.00;102630.44;5113395;27;20057;-60
2022/08/10 03:50:06;;;;;;;5.22;3.90;;;;;;;18.14;100.00;102631.47;5109737;27;20050;-60
2022/08/10 03:52:54;;;;;;;6.22;3.72;;;;;;;18.09;100.00;102629.25;5112512;27;20065;-59
2022/08/10 03:55:21;;;;;;;5.13;3.90;;;;;;;18.06;100.00;102626.06;5110169;27;20044;-60
2022/08/10 03:58:09;;;;;;;7.13;4.30;;;;;;;18.04;100.00;102630.72;5115235;27;20058;-60
2022/08/10 04:00:37;;;;;;;7.05;3.72;;;;;;;18.05;100.00;102632.34;5109760;27;20054;-60
2022/08/10 04:03:04;;;;;;;6.25;3.80;;;;;;;18.05;100.00;102635.84;5109012;28;20668;-60
2022/08/10 04:05:34;;;;;;;7.68;4.25;;;;;;;18.04;100.00;102633.38;5098528;27;20059;-61
2022/08/10 04:08:05;;;;;;;7.72;4.38;;;;;;;18.00;100.00;102637.31;5106582;27;20101;-60
2022/08/10 04:10:33;;;;;;;6.10;3.85;;;;;;;17.98;100.00;102626.84;5104605;27;20423;-60
2022/08/10 04:13:00;;;;;;;7.38;4.05;;;;;;;17.97;100.00;102631.31;5109122;28;20051;-60
2022/08/10 04:15:27;;;;;;;6.57;4.20;;;;;;;17.90;100.00;102634.72;5127630;27;20053;-58
2022/08/10 04:17:53;;;;;;;6.90;4.43;;;;;;;17.88;100.00;102636.69;5105556;27;20434;-60
2022/08/10 04:20:37;;;;;;;9.47;4.47;;;;;;;17.87;100.00;102642.97;5115358;27;20051;-60
2022/08/10 04:23:20;;;;;;;7.68;5.03;;;;;;;17.88;100.00;102645.47;5106090;27;20499;-59
2022/08/10 04:25:46;;;;;;;6.93;4.25;;;;;;;17.84;100.00;102640.59;5123745;27;20161;-59
2022/08/10 04:28:13;;;;;;;8.13;4.70;;;;;;;17.84;100.00;102644.13;5104634;27;20057;-59
2022/08/10 04:30:40;;;;;;;7.25;4.68;;;;;;;17.82;100.00;102637.25;5111234;27;20066;-58
2022/08/10 04:33:09;;;;;;;8.40;4.20;;;;;;;17.83;100.00;102631.78;5107419;27;20053;-60
2022/08/10 04:35:37;;;;;;;6.13;4.65;;;;;;;17.81;100.00;102647.03;5108261;27;20396;-60
2022/08/10 04:38:04;;;;;;;8.07;4.60;;;;;;;17.80;100.00;102640.06;5114519;27;20057;-60
2022/08/10 04:40:31;;;;;;;6.95;4.65;;;;;;;17.78;100.00;102640.22;5112181;27;20051;-60
2022/08/10 04:43:03;;;;;;;11.90;4.97;;;;;;;17.77;100.00;102646.47;5110894;27;21311;-61
2022/08/10 04:45:40;;;;;;;7.97;5.07;;;;;;;17.77;100.00;102643.84;5103914;27;20100;-60
2022/08/10 04:48:16;;;;;;;7.43;4.70;;;;;;;17.79;100.00;102639.22;5100724;27;20758;-60
2022/08/10 04:51:03;;;;;;;6.93;4.70;;;;;;;17.76;100.00;102636.03;5106143;27;20103;-60
2022/08/10 04:53:30;;;;;;;7.15;4.75;;;;;;;17.74;100.00;102638.00;5123554;27;20050;-60
2022/08/10 04:55:57;;;;;;;10.00;5.43;;;;;;;17.71;100.00;102636.47;5110119;27;20046;-60
2022/08/10 04:58:23;;;;;;;8.13;5.60;;;;;;;17.70;100.00;102626.84;5104582;27;20047;-60
2022/08/10 05:00:50;;;;;;;8.43;5.35;;;;;;;17.72;100.00;102638.16;5117875;27;20488;-60
2022/08/10 05:03:17;;;;;;;7.72;5.25;;;;;;;17.70;100.00;102637.47;5096453;27;20048;-59
2022/08/10 05:05:43;;;;;;;8.52;5.63;;;;;;;17.68;100.00;102636.78;5110830;27;20500;-61
2022/08/10 05:08:10;;;;;;;9.10;6.18;;;;;;;17.68;100.00;102639.44;5102694;27;20051;-60
2022/08/10 05:10:36;;;;;;;9.80;6.00;;;;;;;17.73;100.00;102638.97;5113907;27;20051;-60
2022/08/10 05:13:03;;;;;;;8.82;6.15;;;;;;;17.73;100.00;102642.47;5112068;27;20047;-61
2022/08/10 05:15:30;;;;;;;10.18;6.15;;;;;;;17.75;100.00;102645.81;5100383;27;20050;-61
2022/08/10 05:17:56;;;;;;;10.15;6.50;;;;;;;17.79;100.00;102643.69;5111899;27;20051;-60
2022/08/10 05:20:35;;;;;;;8.88;5.63;;;;;;;17.76;100.00;102641.34;5103962;28;20043;-61
2022/08/10 05:23:02;;;;;;;11.82;6.25;;;;;;;17.75;100.00;102645.81;5110283;27;20055;-61
2022/08/10 05:25:28;;;;;;;11.23;6.90;;;;;;;17.78;100.00;102640.22;5102541;27;20074;-60
2022/08/10 05:27:58;;;;;;;10.68;6.65;;;;;;;17.80;100.00;102637.41;5107510;27;20112;-61
2022/08/10 05:30:31;;;;;;;14.20;6.97;;;;;;;17.78;100.00;102642.88;5100883;27;20051;-61
2022/08/10 05:32:57;;;;;;;11.55;6.65;;;;;;;17.82;100.00;102640.75;5118478;27;20043;-61
2022/08/10 05:35:31;;;;;;;9.50;6.40;;;;;;;17.83;100.00;102642.41;5117401;27;20043;-60
2022/08/10 05:38:21;;;;;;;14.02;7.13;;;;;;;17.94;100.00;102644.88;5113669;27;20570;-61
2022/08/10 05:40:48;;;;;;;11.70;6.90;;;;;;;17.95;100.00;102651.00;5101243;27;20658;-61
2022/08/10 05:43:17;;;;;;;11.38;5.80;;;;;;;17.97;100.00;102649.91;5100783;27;20039;-61
2022/08/10 05:45:45;;;;;;;10.43;6.10;;;;;;;18.01;100.00;102653.06;5104320;28;20155;-61
2022/08/10 05:48:32;;;;;;;13.60;6.75;;;;;;;18.06;100.00;102655.28;5086345;28;20058;-61
2022/08/10 05:51:19;;;;;;;11.13;7.00;;;;;;;18.12;100.00;102652.03;5109745;27;20062;-61
2022/08/10 05:53:46;;;;;;;10.90;7.18;;;;;;;18.12;100.00;102655.50;5105983;27;20055;-61
2022/08/10 05:56:32;;;;;;;12.82;6.40;;;;;;;18.16;100.00;102651.56;5103365;28;20420;-59
2022/08/10 05:59:18;;;;;;;10.48;6.93;;;;;;;18.17;100.00;102649.75;5096895;27;20047;-59
2022/08/10 06:02:06;;;;;;;9.52;6.53;;;;;;;18.22;100.00;102650.13;5115031;27;20047;-61
2022/08/10 06:04:54;;;;;;;10.60;6.85;;;;;;;18.24;100.00;102649.97;5113384;27;20047;-61
2022/08/10 06:07:25;;;;;;;12.82;6.70;;;;;;;18.27;100.00;102657.63;5125106;27;20050;-60
2022/08/10 06:09:54;;;;;;;9.10;6.47;;;;;;;18.28;100.00;102657.47;5121760;27;20051;-62
2022/08/10 06:12:27;;;;;;;12.82;6.72;;;;;;;18.32;100.00;102653.50;5102640;27;20078;-60
2022/08/10 06:15:00;;;;;;;12.02;7.55;;;;;;;18.31;100.00;102653.69;5107237;28;20091;-60
2022/08/10 06:17:31;;;;;;;10.77;7.15;;;;;;;18.33;100.00;102652.53;5100198;28;20551;-61
2022/08/10 06:20:00;;;;;;;10.93;5.95;;;;;;;18.35;100.00;102645.25;5109173;27;20047;-60
2022/08/10 06:22:28;;;;;;;12.82;6.68;;;;;;;18.41;100.00;102656.25;5104405;27;20042;-59
2022/08/10 06:24:55;;;;;;;;;;;;;;;18.42;100.00;102655.25;5102854;27;20522;-61
2022/08/10 06:27:43;;;;;;;12.68;6.88;;;;;;;18.49;100.00;102648.34;5105451;28;19954;-61
2022/08/10 06:30:10;;;;;;;11.13;7.10;;;;;;;18.55;100.00;102647.72;5113737;27;20099;-59
2022/08/10 06:32:49;;;;;;;11.05;7.00;;;;;;;18.57;100.00;102651.06;5111608;27;20047;-61
2022/08/10 06:35:17;;;;;;;13.30;7.05;;;;;;;18.60;100.00;102648.09;5103050;28;20047;-61
2022/08/10 06:37:46;;;;;;;14.57;6.50;;;;;;;18.62;100.00;102647.94;5105285;27;20094;-62
2022/08/10 06:40:17;;;;;;;10.05;7.07;;;;;;;18.72;100.00;102651.34;5096607;28;20050;-61
2022/08/10 06:42:47;;;;;;;11.82;6.85;;;;;;;18.76;100.00;102652.72;5118801;28;20058;-61
2022/08/10 06:45:20;;;;;;;8.77;5.93;;;;;;;18.79;100.00;102652.38;5104400;28;20124;-60
2022/08/10 06:47:59;;;;;;;10.73;6.47;;;;;;;18.86;100.00;102655.28;5095118;28;20071;-61
2022/08/10 06:50:33;;;;;;;9.88;6.28;;;;;;;18.89;100.00;102661.09;5105253;28;20048;-60
2022/08/10 06:53:21;;;;;;;8.68;6.05;;;;;;;18.91;100.00;102656.47;5109405;28;20051;-60
2022/08/10 06:55:52;;;;;;;10.75;5.25;;;;;;;19.01;100.00;102655.53;5114353;28;20066;-61
2022/08/10 06:58:25;;;;;;;11.10;6.15;;;;;;;19.05;100.00;102656.88;5100007;28;20102;-61
2022/08/10 07:00:54;;;;;;;9.75;5.60;;;;;;;19.11;100.00;102657.09;5108148;28;20060;-60
2022/08/10 07:03:25;;;;;;;;;;;;;;;19.15;100.00;102657.59;5111394;27;20507;-61
2022/08/10 07:05:53;;;;;;;14.00;6.63;;;;;;;19.19;100.00;102663.44;5117584;27;19930;-61
2022/08/10 07:08:22;;;;;;;11.60;6.63;;;;;;;19.22;100.00;102660.47;5114948;28;20452;-60
2022/08/10 07:10:50;;;;;;;10.23;6.72;;;;;;;19.23;100.00;102660.31;5113880;28;20492;-60
2022/08/10 07:13:18;;;;;;;7.97;5.18;;;;;;;19.26;100.00;102657.31;5117278;28;20055;-61
2022/08/10 07:16:11;;;;;;;12.82;6.63;;;;;;;19.31;100.00;102665.66;5110740;28;20043;-61
2022/08/10 07:18:40;;;;;;;8.93;5.80;;;;;;;19.33;100.00;102661.03;5110549;28;20456;-62
2022/08/10 07:21:09;;;;;;;11.48;6.43;;;;;;;19.38;100.00;102663.19;5100176;28;20036;-59
2022/08/10 07:23:38;;;;;;;11.20;6.35;;;;;;;19.48;100.00;102665.72;5107009;28;20058;-61
2022/08/10 07:26:26;;;;;;;11.52;6.28;;;;;;;19.53;100.00;102664.25;5097801;28;20052;-61
2022/08/10 07:28:54;;;;;;;8.98;5.45;;;;;;;19.58;100.00;102662.94;5106312;27;20053;-61
2022/08/10 07:31:21;;;;;;;7.68;5.57;;;;;;;19.60;100.00;102658.28;5105147;28;20051;-61
2022/08/10 07:34:10;;;;;;;9.77;5.90;;;;;;;19.67;100.00;102665.47;5117805;27;20059;-60
2022/08/10 07:36:39;;;;;;;11.18;5.60;;;;;;;19.72;100.00;102663.19;5123121;28;20066;-61
2022/08/10 07:39:07;;;;;;;9.80;6.18;;;;;;;19.78;100.00;102661.72;5101743;28;20048;-60
2022/08/10 07:41:38;;;;;;;;;;;;;;;19.81;100.00;102653.38;5110864;28;20057;-61
2022/08/10 07:44:06;;;;;;;10.35;5.38;;;;;;;19.86;100.00;102655.56;5106864;27;20007;-60
2022/08/10 07:46:37;;;;;;;8.27;5.40;;;;;;;19.94;100.00;102655.59;5118289;27;20054;-61
2022/08/10 07:49:08;;;;;;;10.40;5.50;;;;;;;19.97;100.00;102652.56;5117793;27;20053;-61
2022/08/10 07:51:47;;;;;;;11.90;4.65;;;;;;;20.03;100.00;102659.94;5129228;27;20706;-61
2022/08/10 07:54:22;;;;;;;10.38;6.03;;;;;;;20.08;100.00;102662.91;5112350;27;20464;-61
2022/08/10 07:56:52;;;;;;;8.68;5.68;;;;;;;20.19;100.00;102671.59;5116798;27;20046;-61
2022/08/10 07:59:36;;;;;;;13.27;6.10;;;;;;;20.28;100.00;102662.59;5107356;27;20130;-60
2022/08/10 08:02:06;;;;;;;10.55;5.40;;;;;;;20.38;100.00;102659.78;5104985;27;20793;-61
2022/08/10 08:04:34;;;;;;;9.18;5.82;;;;;;;20.43;100.00;102660.13;5110688;27;20051;-60
2022/08/10 08:07:03;;;;;;;8.80;6.10;;;;;;;20.47;100.00;102666.78;5113205;27;20047;-61
2022/08/10 08:09:30;;;;;;;10.98;5.60;;;;;;;20.52;100.00;102657.28;5110848;27;20055;-61
2022/08/10 08:11:58;;;;;;;10.17;5.73;;;;;;;20.58;100.00;102652.25;5099354;27;20053;-61
2022/08/10 08:14:26;;;;;;;8.25;5.32;;;;;;;20.64;100.00;102657.81;5113490;27;20565;-61
2022/08/10 08:16:54;;;;;;;10.05;6.32;;;;;;;20.71;100.00;102653.44;5121165;27;20130;-60
2022/08/10 08:19:22;;;;;;;8.70;5.70;;;;;;;20.88;100.00;102654.25;5092244;28;20054;-60
2022/08/10 08:22:02;;;;;;;10.48;4.82;;;;;;;21.14;100.00;102650.50;5108313;28;20043;-61
2022/08/10 08:24:50;;;;;;;10.10;4.82;;;;;;;21.45;100.00;102655.91;5109785;27;20507;-60
2022/08/10 08:27:18;;;;;;;8.43;5.28;;;;;;;21.81;99.21;102654.56;5108756;27;20048;-61
2022/08/10 08:29:47;;;;;;;9.32;4.85;;;;;;;22.24;95.17;102650.41;5095838;27;20066;-61
2022/08/10 08:32:21;;;;;;;8.60;5.10;;;;;;;22.66;93.15;102654.41;5120133;27;20085;-61
2022/08/10 08:34:54;;;;;;;10.75;5.50;;;;;;;23.07;89.41;102643.28;5115439;27;20043;-61
2022/08/10 08:37:23;;;;;;;8.35;4.95;;;;;;;23.48;88.23;102649.94;5108407;28;20047;-61
2022/08/10 08:40:22;;;;;;;8.57;4.53;;;;;;;23.96;84.06;102646.81;5095991;27;20058;-61
2022/08/10 08:43:10;;;;;;;13.65;5.60;;;;;;;24.35;80.47;102648.19;5120921;27;20050;-61
2022/08/10 08:46:04;;;;;;;;;;;;;;;24.66;77.32;102648.66;5113974;27;20047;-61
2022/08/10 08:48:57;;;;;;;9.23;4.78;;;;;;;25.07;76.24;102644.34;5109299;28;19934;-61
2022/08/10 08:51:34;;;;;;;7.05;4.43;;;;;;;25.37;75.03;102646.78;5102239;27;20050;-61
2022/08/10 08:55:00;;;;;;;6.88;3.80;;;;;;;25.73;73.18;102646.44;5112689;27;20051;-60
2022/08/10 08:57:51;;;;;;;7.70;4.43;;;;;;;26.07;69.18;102638.44;5125415;27;20134;-62
2022/08/10 09:00:44;;;;;;;7.25;3.95;;;;;;;26.35;68.18;102639.06;5111427;27;20067;-60
2022/08/10 09:03:35;;;;;;;5.68;3.67;;;;;;;26.57;68.76;102638.84;5079373;27;20393;-61
2022/08/10 09:06:33;;;;;;;6.82;3.63;;;;;;;26.76;65.53;102635.31;5107044;27;20046;-61
2022/08/10 09:09:38;;;;;;;7.60;3.38;;;;;;;27.08;64.24;102630.03;5103096;27;20122;-62
2022/08/10 09:12:39;;;;;;;6.80;3.22;;;;;;;27.20;62.47;102633.69;5095444;27;20062;-61
2022/08/10 09:15:27;;;;;;;8.50;3.20;;;;;;;27.38;62.55;102638.44;5106837;27;20431;-61
2022/08/10 09:18:30;;;;;;;8.05;3.40;;;;;;;27.59;62.51;102634.56;5114675;27;20091;-61
2022/08/10 09:21:22;;;;;;;5.85;3.55;;;;;;;27.77;61.40;102633.81;5096100;28;20058;-61
2022/08/10 09:24:09;;;;;;;5.88;3.58;;;;;;;28.04;60.12;102635.53;5121154;27;20047;-61
2022/08/10 09:26:48;;;;;;;8.20;3.45;;;;;;;28.26;59.53;102635.97;5102378;27;20054;-61
2022/08/10 09:29:24;;;;;;;6.82;3.50;;;;;;;28.46;60.53;102625.84;5109994;27;20410;-61
2022/08/10 09:32:02;;;;;;;6.32;3.60;;;;;;;28.48;57.89;102625.59;5111040;27;20063;-61
2022/08/10 09:34:58;;;;;;;5.43;3.20;;;;;;;28.77;58.84;102616.78;5110844;27;20043;-61
2022/08/10 09:38:00;;;;;;;5.70;3.08;;;;;;;28.96;58.04;102617.59;5100953;27;20130;-61
2022/08/10 09:40:52;;;;;;;6.00;2.80;;;;;;;29.21;57.46;102608.59;5120349;27;20051;-60
2022/08/10 09:43:42;;;;;;;9.52;3.40;;;;;;;29.30;56.77;102609.91;5100347;28;20548;-61
2022/08/10 09:46:42;;;;;;;4.78;2.70;;;;;;;29.49;55.34;102605.28;5104593;28;20866;-61
2022/08/10 09:49:26;;;;;;;5.80;2.97;;;;;;;29.63;55.83;102605.91;5116289;27;20051;-61
2022/08/10 09:52:34;;;;;;;4.82;2.65;;;;;;;29.72;56.16;102601.03;5121535;27;20057;-60
2022/08/10 09:55:31;;;;;;;3.92;2.38;;;;;;;29.89;56.81;102601.16;5110893;27;20054;-61
2022/08/10 09:58:30;;;;;;;5.07;2.50;;;;;;;30.06;54.19;102596.72;5106952;28;20513;-61
2022/08/10 10:01:36;;;;;;;4.13;2.55;;;;;;;30.24;53.93;102595.75;5105811;27;20073;-61
2022/08/10 10:05:02;;;;;;;3.47;2.15;;;;;;;30.37;52.21;102588.50;5114607;27;20062;-61
2022/08/10 10:07:29;;;;;;;3.83;2.08;;;;;;;30.48;53.02;102587.66;5100581;27;20054;-62
2022/08/10 10:10:02;;;;;;;3.70;1.77;;;;;;;30.59;52.71;102581.41;5107869;27;20066;-63
2022/08/10 10:12:49;;;;;;;4.20;1.70;;;;;;;30.77;53.10;102571.47;5108234;27;20048;-61
2022/08/10 10:15:57;;;;;;;5.15;2.00;;;;;;;30.93;51.89;102576.13;5108136;27;20665;-61
2022/08/10 10:18:42;;;;;;;2.60;1.67;;;;;;;31.04;50.57;102577.16;5105360;27;20093;-61
2022/08/10 10:21:32;;;;;;;7.13;1.80;;;;;;;31.08;50.60;102568.28;5115662;27;20427;-61
2022/08/10 10:24:29;;;;;;;2.90;1.85;;;;;;;31.30;51.24;102568.44;5093466;27;20415;-61
2022/08/10 10:27:13;;;;;;;3.95;1.52;;;;;;;31.43;49.31;102566.47;5118175;27;20040;-62
2022/08/10 10:30:01;;;;;;;4.27;1.77;;;;;;;31.44;49.58;102563.53;5107733;27;20066;-61
2022/08/10 10:33:19;;;;;;;3.67;1.70;;;;;;;31.64;50.61;102565.78;5105556;27;20047;-62
2022/08/10 10:35:54;;;;;;;4.20;1.73;;;;;;;31.58;48.13;102552.38;5015785;28;20053;-61
2022/08/10 10:38:25;;;;;;;2.92;1.70;;;;;;;31.71;49.45;102543.91;5015285;28;20049;-60
2022/08/10 10:41:02;;;;;;;5.60;1.70;;;;;;;31.89;47.93;102557.22;5016205;28;20099;-62
2022/08/10 10:43:57;;;;;;;2.75;1.42;;;;;;;32.10;46.53;102554.81;5018034;28;20056;-62
2022/08/10 10:46:45;;;;;;;2.53;1.27;;;;;;;32.13;45.38;102548.91;5014130;28;21014;-61
2022/08/10 10:49:51;;;;;;;2.83;1.67;;;;;;;32.42;44.94;102543.28;5011988;28;20053;-62
2022/08/10 10:53:07;;;;;;;2.25;1.45;;;;;;;32.60;47.98;102544.88;5013584;28;20050;-60
2022/08/10 10:55:33;;;;;;;4.63;1.73;;;;;;;32.75;45.92;102545.06;5026529;28;20068;-60
2022/08/10 10:59:14;;;;;;;3.33;1.58;;;;;;;32.89;45.34;102540.91;5008400;28;20493;-60
2022/08/10 11:02:12;;;;;;;3.15;2.40;;;;;;;33.03;45.20;102527.72;5013888;28;20069;-62
2022/08/10 11:04:41;;;;;;;4.75;2.00;;;;;;;33.02;45.64;102523.34;5015854;28;20060;-62
2022/08/10 11:07:27;;;;;;;4.82;1.70;;;;;;;33.24;45.75;102520.56;5104066;28;20073;-61
2022/08/10 11:10:06;;;;;;;3.50;1.88;;;;;;;33.30;44.59;102518.72;5102304;28;20115;-63
2022/08/10 11:13:24;;;;;;;2.03;1.60;;;;;;;33.46;46.85;102506.06;5111726;28;20161;-62
2022/08/10 11:16:18;;;;;;;3.95;1.42;;;;;;;33.45;44.33;102512.59;5102335;27;20051;-63
2022/08/10 11:18:58;;;;;;;3.33;1.70;;;;;;;33.49;44.29;102508.28;5114067;27;20054;-63
2022/08/10 11:21:36;;;;;;;3.75;1.60;;;;;;;33.47;44.72;102505.81;5101577;27;20131;-61
2022/08/10 11:24:30;;;;;;;5.28;1.63;;;;;;;33.54;44.77;102504.75;5105482;28;20043;-62
2022/08/10 11:27:35;;;;;;;2.55;1.50;;;;;;;33.46;43.16;102501.47;5105512;27;20043;-62
2022/08/10 11:30:06;;;;;;;3.00;1.80;;;;;;;33.71;44.45;102508.16;5122748;27;20530;-62
2022/08/10 11:32:52;;;;;;;72.57;58.10;;;;;;;33.67;43.79;102504.34;5120200;27;20047;-64
2022/08/10 11:35:32;;;;;;;5.60;2.33;;;;;;;33.79;44.31;102504.13;5117444;27;20052;-62
2022/08/10 11:38:13;;;;;;;4.25;2.20;;;;;;;33.92;43.19;102508.31;5109092;27;20043;-63
2022/08/10 11:41:19;;;;;;;3.13;1.80;;;;;;;33.99;42.32;102506.16;5108149;27;20050;-63
2022/08/10 11:44:39;;;;;;;2.97;1.58;;;;;;;34.16;41.90;102497.81;5104519;27;20066;-62
2022/08/10 11:47:12;;;;;;;5.10;1.70;;;;;;;34.31;41.69;102500.63;5123336;27;20453;-63
2022/08/10 11:49:48;;;;;;;3.85;1.33;;;;;;;34.43;42.58;102498.47;5103667;28;20412;-65
2022/08/10 11:52:25;;;;;;;1.88;1.23;;;;;;;34.56;42.85;102497.16;5116724;27;20051;-62
2022/08/10 11:55:04;;;;;;;3.72;1.60;;;;;;;34.63;41.31;102494.97;5107225;27;20047;-62
2022/08/10 11:57:33;;;;;;;3.50;1.42;;;;;;;34.61;40.58;102488.97;5119301;27;20039;-63
2022/08/10 12:00:19;;;;;;;2.60;1.40;;;;;;;34.80;43.98;102486.59;5117322;27;20050;-63
2022/08/10 12:02:56;;;;;;;4.10;1.50;;;;;;;35.02;39.36;102480.06;5108513;27;20524;-62
2022/08/10 12:05:27;;;;;;;2.78;1.58;;;;;;;35.14;40.49;102477.88;5119225;27;20135;-64
2022/08/10 12:08:18;;;;;;;4.47;1.50;;;;;;;35.10;39.95;102462.34;5106273;27;20039;-63